FLI417 EGPE-EKVG
Flight info
| Callsign | FLI417 |
|---|---|
| Flight time | 0h 56m |
| Altitude | 18000 |
| Route | GARVA Y906 STN/N0460F310 DCT NALAN/M079F320 DCT ROBUR |
| Aircraft | A320/M-SDE3FGHIRWY/LB1 |
Departure
| Time | 2026-04-27 21:57 |
|---|---|
| Airport | Inverness Airport (EGPE) |
Arrival
| Time | 2026-04-27 22:54 |
|---|---|
| Airport | Vágar Airport (EKVG) |
| Time | Latitude | Longitude | Altitude | Speed | Heading |
|---|---|---|---|---|---|
| 2026-04-27 21:54 | 57.53937 | -4.06165 | 36 ft | 0 kts | 185° |
| 2026-04-27 21:55 | 57.53931 | -4.06166 | 36 ft | 6 kts | 185° |
| 2026-04-27 21:55 | 57.53860 | -4.06176 | 36 ft | 10 kts | 184° |
| 2026-04-27 21:56 | 57.53795 | -4.06177 | 36 ft | 8 kts | 163° |
| 2026-04-27 21:56 | 57.53742 | -4.06062 | 39 ft | 6 kts | 122° |
| 2026-04-27 21:56 | 57.53714 | -4.05956 | 37 ft | 10 kts | 95° |
| 2026-04-27 21:57 | 57.53749 | -4.05841 | 39 ft | 14 kts | 47° |
| 2026-04-27 21:57 | 57.53962 | -4.05386 | 39 ft | 87 kts | 51° |
| 2026-04-27 21:57 | 57.54502 | -4.04205 | 35 ft | 152 kts | 50° |
| 2026-04-27 21:57 | 57.55193 | -4.02774 | 804 ft | 138 kts | 44° |
| 2026-04-27 21:58 | 57.55924 | -4.01764 | 1546 ft | 131 kts | 28° |
| 2026-04-27 21:58 | 57.56862 | -4.01093 | 1820 ft | 157 kts | 13° |
| 2026-04-27 21:58 | 57.57949 | -4.01011 | 2435 ft | 155 kts | 352° |
| 2026-04-27 21:58 | 57.58954 | -4.01611 | 3064 ft | 152 kts | 341° |
| 2026-04-27 21:59 | 57.60025 | -4.02252 | 3342 ft | 173 kts | 345° |
| 2026-04-27 21:59 | 57.61258 | -4.02874 | 3604 ft | 195 kts | 345° |
| 2026-04-27 21:59 | 57.62645 | -4.03561 | 3910 ft | 215 kts | 345° |
| 2026-04-27 21:59 | 57.64167 | -4.04326 | 4221 ft | 239 kts | 345° |
| 2026-04-27 22:00 | 57.65834 | -4.05179 | 4748 ft | 254 kts | 344° |
| 2026-04-27 22:00 | 57.67533 | -4.06056 | 5576 ft | 259 kts | 344° |
| 2026-04-27 22:00 | 57.69279 | -4.06963 | 6455 ft | 262 kts | 345° |
| 2026-04-27 22:00 | 57.71048 | -4.07891 | 7289 ft | 265 kts | 345° |
| 2026-04-27 22:01 | 57.72834 | -4.08831 | 8114 ft | 268 kts | 345° |
| 2026-04-27 22:01 | 57.74637 | -4.09782 | 8942 ft | 271 kts | 345° |
| 2026-04-27 22:01 | 57.76459 | -4.10742 | 9787 ft | 274 kts | 346° |
| 2026-04-27 22:01 | 57.78304 | -4.11717 | 10572 ft | 278 kts | 346° |
| 2026-04-27 22:02 | 57.80227 | -4.12734 | 10901 ft | 298 kts | 345° |
| 2026-04-27 22:02 | 57.82304 | -4.13836 | 11090 ft | 322 kts | 345° |
| 2026-04-27 22:02 | 57.84530 | -4.15020 | 11343 ft | 341 kts | 345° |
| 2026-04-27 22:02 | 57.86838 | -4.16249 | 11930 ft | 347 kts | 345° |
| 2026-04-27 22:03 | 57.89178 | -4.17497 | 12610 ft | 351 kts | 345° |
| 2026-04-27 22:03 | 57.91535 | -4.18755 | 13316 ft | 353 kts | 345° |
| 2026-04-27 22:03 | 57.93911 | -4.20024 | 14022 ft | 356 kts | 345° |
| 2026-04-27 22:03 | 57.96299 | -4.21303 | 14666 ft | 359 kts | 345° |
| 2026-04-27 22:04 | 57.98684 | -4.22581 | 15284 ft | 361 kts | 345° |
| 2026-04-27 22:04 | 58.01105 | -4.23882 | 15918 ft | 363 kts | 346° |
| 2026-04-27 22:04 | 58.03537 | -4.25192 | 16549 ft | 365 kts | 346° |
| 2026-04-27 22:04 | 58.05986 | -4.26513 | 17163 ft | 367 kts | 346° |
| 2026-04-27 22:05 | 58.08445 | -4.27840 | 17791 ft | 369 kts | 346° |
| 2026-04-27 22:05 | 58.10923 | -4.29179 | 18423 ft | 371 kts | 346° |
| 2026-04-27 22:05 | 58.13408 | -4.30521 | 18993 ft | 373 kts | 346° |
| 2026-04-27 22:05 | 58.15916 | -4.31878 | 19490 ft | 375 kts | 345° |
| 2026-04-27 22:06 | 58.18434 | -4.33249 | 19996 ft | 378 kts | 345° |
| 2026-04-27 22:06 | 58.20970 | -4.34634 | 20497 ft | 380 kts | 345° |
| 2026-04-27 22:06 | 58.23523 | -4.36026 | 20979 ft | 383 kts | 345° |
| 2026-04-27 22:06 | 58.26089 | -4.37426 | 21427 ft | 385 kts | 345° |
| 2026-04-27 22:07 | 58.28673 | -4.38833 | 21924 ft | 387 kts | 345° |
| 2026-04-27 22:07 | 58.31270 | -4.40248 | 22385 ft | 389 kts | 345° |
| 2026-04-27 22:07 | 58.33881 | -4.41672 | 22829 ft | 392 kts | 345° |
| 2026-04-27 22:07 | 58.36508 | -4.43112 | 23265 ft | 394 kts | 345° |
| 2026-04-27 22:08 | 58.39147 | -4.44565 | 23661 ft | 396 kts | 345° |
| 2026-04-27 22:08 | 58.41770 | -4.46009 | 24048 ft | 399 kts | 345° |
| 2026-04-27 22:08 | 58.44445 | -4.47481 | 24376 ft | 401 kts | 345° |
| 2026-04-27 22:08 | 58.47132 | -4.48961 | 24713 ft | 403 kts | 345° |
| 2026-04-27 22:09 | 58.49835 | -4.50453 | 25051 ft | 405 kts | 345° |
| 2026-04-27 22:09 | 58.52544 | -4.51954 | 25382 ft | 406 kts | 345° |
| 2026-04-27 22:09 | 58.55271 | -4.53466 | 25701 ft | 408 kts | 345° |
| 2026-04-27 22:09 | 58.58006 | -4.54985 | 26015 ft | 410 kts | 345° |
| 2026-04-27 22:10 | 58.60749 | -4.56513 | 26326 ft | 411 kts | 345° |
| 2026-04-27 22:10 | 58.62572 | -4.57530 | 26526 ft | 413 kts | 345° |
| 2026-04-27 22:10 | 58.66269 | -4.59598 | 26920 ft | 415 kts | 345° |
| 2026-04-27 22:10 | 58.69043 | -4.61152 | 27209 ft | 416 kts | 345° |
| 2026-04-27 22:11 | 58.71790 | -4.62690 | 27480 ft | 418 kts | 345° |
| 2026-04-27 22:11 | 58.74588 | -4.64256 | 27751 ft | 419 kts | 345° |
| 2026-04-27 22:11 | 58.77392 | -4.65828 | 28016 ft | 421 kts | 345° |
| 2026-04-27 22:11 | 58.80205 | -4.67409 | 28260 ft | 422 kts | 345° |
| 2026-04-27 22:12 | 58.83029 | -4.69003 | 28503 ft | 423 kts | 345° |
| 2026-04-27 22:12 | 58.85861 | -4.70603 | 28738 ft | 425 kts | 345° |
| 2026-04-27 22:12 | 58.88695 | -4.72203 | 29042 ft | 424 kts | 345° |
| 2026-04-27 22:12 | 58.91523 | -4.73800 | 29381 ft | 423 kts | 345° |
| 2026-04-27 22:13 | 58.94349 | -4.75397 | 29714 ft | 422 kts | 345° |
| 2026-04-27 22:13 | 58.97167 | -4.76993 | 30039 ft | 421 kts | 345° |
| 2026-04-27 22:13 | 58.99980 | -4.78590 | 30370 ft | 420 kts | 345° |
| 2026-04-27 22:13 | 59.02782 | -4.80186 | 30675 ft | 419 kts | 345° |
| 2026-04-27 22:14 | 59.05579 | -4.81785 | 30964 ft | 418 kts | 345° |
| 2026-04-27 22:14 | 59.08367 | -4.83387 | 31260 ft | 417 kts | 345° |
| 2026-04-27 22:14 | 59.11141 | -4.84985 | 31565 ft | 415 kts | 345° |
| 2026-04-27 22:14 | 59.13908 | -4.86580 | 31870 ft | 414 kts | 345° |
| 2026-04-27 22:15 | 59.16665 | -4.88162 | 32172 ft | 412 kts | 345° |
| 2026-04-27 22:15 | 59.19413 | -4.89735 | 32402 ft | 411 kts | 345° |
| 2026-04-27 22:15 | 59.22161 | -4.91315 | 32459 ft | 412 kts | 345° |
| 2026-04-27 22:16 | 59.27627 | -4.94478 | 32465 ft | 413 kts | 345° |
| 2026-04-27 22:16 | 59.33135 | -4.97678 | 32464 ft | 413 kts | 345° |
| 2026-04-27 22:17 | 59.38651 | -5.00886 | 32466 ft | 417 kts | 345° |
| 2026-04-27 22:17 | 59.44265 | -5.04167 | 32461 ft | 424 kts | 345° |
| 2026-04-27 22:18 | 59.49946 | -5.07506 | 32461 ft | 427 kts | 344° |
| 2026-04-27 22:18 | 59.55641 | -5.10869 | 32459 ft | 427 kts | 344° |
| 2026-04-27 22:19 | 59.61339 | -5.14227 | 32458 ft | 427 kts | 344° |
| 2026-04-27 22:19 | 59.67033 | -5.17597 | 32455 ft | 427 kts | 344° |
| 2026-04-27 22:20 | 59.72740 | -5.21003 | 31996 ft | 428 kts | 344° |
| 2026-04-27 22:20 | 59.75598 | -5.22706 | 31627 ft | 429 kts | 344° |
| 2026-04-27 22:20 | 59.78429 | -5.24394 | 31249 ft | 431 kts | 343° |
| 2026-04-27 22:20 | 59.81317 | -5.26123 | 30861 ft | 433 kts | 343° |
| 2026-04-27 22:21 | 59.84210 | -5.27855 | 30490 ft | 435 kts | 343° |
| 2026-04-27 22:21 | 59.87114 | -5.29597 | 30065 ft | 437 kts | 343° |
| 2026-04-27 22:21 | 59.90030 | -5.31354 | 29643 ft | 439 kts | 343° |
| 2026-04-27 22:21 | 59.92958 | -5.33125 | 29228 ft | 440 kts | 343° |
| 2026-04-27 22:22 | 59.95896 | -5.34904 | 28815 ft | 442 kts | 343° |
| 2026-04-27 22:22 | 59.98841 | -5.36688 | 28410 ft | 443 kts | 343° |
| 2026-04-27 22:22 | 60.01795 | -5.38474 | 28013 ft | 444 kts | 343° |
| 2026-04-27 22:22 | 60.04758 | -5.40271 | 27622 ft | 446 kts | 343° |
| 2026-04-27 22:23 | 60.07695 | -5.42057 | 27236 ft | 446 kts | 342° |
| 2026-04-27 22:23 | 60.10664 | -5.43868 | 26857 ft | 447 kts | 342° |
| 2026-04-27 22:23 | 60.13639 | -5.45688 | 26481 ft | 447 kts | 342° |
| 2026-04-27 22:23 | 60.16616 | -5.47511 | 26120 ft | 448 kts | 342° |
| 2026-04-27 22:24 | 60.19600 | -5.49338 | 25737 ft | 449 kts | 342° |
| 2026-04-27 22:24 | 60.22593 | -5.51173 | 25372 ft | 449 kts | 342° |
| 2026-04-27 22:24 | 60.25574 | -5.53001 | 25015 ft | 447 kts | 342° |
| 2026-04-27 22:24 | 60.28541 | -5.54826 | 24662 ft | 445 kts | 342° |
| 2026-04-27 22:25 | 60.31492 | -5.56646 | 24307 ft | 443 kts | 342° |
| 2026-04-27 22:25 | 60.34433 | -5.58474 | 23960 ft | 440 kts | 342° |
| 2026-04-27 22:25 | 60.37348 | -5.60293 | 23561 ft | 436 kts | 342° |
| 2026-04-27 22:25 | 60.40232 | -5.62087 | 23397 ft | 432 kts | 342° |
| 2026-04-27 22:26 | 60.43109 | -5.63880 | 23442 ft | 433 kts | 342° |
| 2026-04-27 22:26 | 60.45990 | -5.65680 | 23439 ft | 433 kts | 342° |
| 2026-04-27 22:26 | 60.48833 | -5.67456 | 23439 ft | 433 kts | 342° |
| 2026-04-27 22:26 | 60.51721 | -5.69265 | 23433 ft | 433 kts | 342° |
| 2026-04-27 22:27 | 60.54602 | -5.71069 | 23434 ft | 433 kts | 342° |
| 2026-04-27 22:27 | 60.57489 | -5.72876 | 23434 ft | 433 kts | 342° |
| 2026-04-27 22:27 | 60.60366 | -5.74687 | 23434 ft | 433 kts | 342° |
| 2026-04-27 22:27 | 60.63245 | -5.76507 | 23436 ft | 433 kts | 342° |
| 2026-04-27 22:28 | 60.66123 | -5.78326 | 23428 ft | 432 kts | 342° |
| 2026-04-27 22:28 | 60.68995 | -5.80145 | 23428 ft | 432 kts | 342° |
| 2026-04-27 22:28 | 60.71862 | -5.81965 | 23427 ft | 432 kts | 342° |
| 2026-04-27 22:28 | 60.74699 | -5.83771 | 23428 ft | 432 kts | 342° |
| 2026-04-27 22:29 | 60.77608 | -5.85621 | 23426 ft | 432 kts | 342° |
| 2026-04-27 22:29 | 60.80437 | -5.87422 | 23426 ft | 432 kts | 342° |
| 2026-04-27 22:29 | 60.83308 | -5.89254 | 23427 ft | 432 kts | 342° |
| 2026-04-27 22:29 | 60.86179 | -5.91094 | 23420 ft | 432 kts | 342° |
| 2026-04-27 22:30 | 60.89049 | -5.92936 | 23422 ft | 432 kts | 342° |
| 2026-04-27 22:30 | 60.91916 | -5.94778 | 23437 ft | 432 kts | 341° |
| 2026-04-27 22:30 | 60.94786 | -5.96628 | 23421 ft | 433 kts | 341° |
| 2026-04-27 22:30 | 60.97660 | -5.98484 | 23420 ft | 433 kts | 341° |
| 2026-04-27 22:31 | 61.00537 | -6.00349 | 23418 ft | 433 kts | 341° |
| 2026-04-27 22:31 | 61.03418 | -6.02204 | 23417 ft | 433 kts | 341° |
| 2026-04-27 22:31 | 61.06298 | -6.04034 | 23417 ft | 433 kts | 342° |
| 2026-04-27 22:31 | 61.09168 | -6.05846 | 23409 ft | 425 kts | 342° |
| 2026-04-27 22:32 | 61.11014 | -6.07006 | 23412 ft | 414 kts | 342° |
| 2026-04-27 22:32 | 61.13739 | -6.08719 | 23412 ft | 402 kts | 342° |
| 2026-04-27 22:32 | 61.16359 | -6.10368 | 23231 ft | 386 kts | 341° |
| 2026-04-27 22:32 | 61.18882 | -6.11969 | 22971 ft | 373 kts | 341° |
| 2026-04-27 22:33 | 61.21323 | -6.13530 | 22712 ft | 362 kts | 341° |
| 2026-04-27 22:33 | 61.23701 | -6.15060 | 22436 ft | 353 kts | 341° |
| 2026-04-27 22:33 | 61.26015 | -6.16552 | 22173 ft | 344 kts | 341° |
| 2026-04-27 22:33 | 61.28268 | -6.18007 | 21918 ft | 335 kts | 341° |
| 2026-04-27 22:34 | 61.30435 | -6.19406 | 21649 ft | 317 kts | 341° |
| 2026-04-27 22:34 | 61.32505 | -6.20736 | 21385 ft | 308 kts | 341° |
| 2026-04-27 22:34 | 61.34546 | -6.22055 | 21132 ft | 306 kts | 341° |
| 2026-04-27 22:34 | 61.36577 | -6.23374 | 20882 ft | 305 kts | 341° |
| 2026-04-27 22:35 | 61.38598 | -6.24684 | 20632 ft | 304 kts | 341° |
| 2026-04-27 22:35 | 61.40617 | -6.25989 | 20384 ft | 303 kts | 341° |
| 2026-04-27 22:35 | 61.42628 | -6.27288 | 20141 ft | 302 kts | 341° |
| 2026-04-27 22:35 | 61.44633 | -6.28588 | 19890 ft | 301 kts | 341° |
| 2026-04-27 22:36 | 61.46633 | -6.29889 | 19648 ft | 300 kts | 341° |
| 2026-04-27 22:36 | 61.48628 | -6.31185 | 19412 ft | 300 kts | 341° |
| 2026-04-27 22:36 | 61.50590 | -6.32465 | 19177 ft | 299 kts | 341° |
| 2026-04-27 22:36 | 61.52573 | -6.33764 | 18947 ft | 299 kts | 341° |
| 2026-04-27 22:37 | 61.54552 | -6.35055 | 18708 ft | 297 kts | 341° |
| 2026-04-27 22:37 | 61.56522 | -6.36341 | 18428 ft | 296 kts | 341° |
| 2026-04-27 22:37 | 61.58486 | -6.37630 | 18157 ft | 296 kts | 340° |
| 2026-04-27 22:37 | 61.60447 | -6.38923 | 17847 ft | 295 kts | 340° |
| 2026-04-27 22:38 | 61.62401 | -6.40215 | 17443 ft | 293 kts | 340° |
| 2026-04-27 22:38 | 61.64346 | -6.41500 | 17051 ft | 292 kts | 340° |
| 2026-04-27 22:38 | 61.66280 | -6.42781 | 16657 ft | 291 kts | 340° |
| 2026-04-27 22:38 | 61.68209 | -6.44058 | 16263 ft | 290 kts | 340° |
| 2026-04-27 22:39 | 61.70130 | -6.45331 | 15870 ft | 289 kts | 340° |
| 2026-04-27 22:39 | 61.72042 | -6.46601 | 15475 ft | 288 kts | 340° |
| 2026-04-27 22:39 | 61.73951 | -6.47870 | 15069 ft | 287 kts | 340° |
| 2026-04-27 22:39 | 61.75854 | -6.49133 | 14667 ft | 286 kts | 340° |
| 2026-04-27 22:40 | 61.77751 | -6.50392 | 14236 ft | 285 kts | 340° |
| 2026-04-27 22:40 | 61.79612 | -6.51628 | 13815 ft | 279 kts | 340° |
| 2026-04-27 22:40 | 61.81398 | -6.52807 | 13608 ft | 259 kts | 340° |
| 2026-04-27 22:40 | 61.83084 | -6.53926 | 13131 ft | 251 kts | 339° |
| 2026-04-27 22:41 | 61.84706 | -6.55225 | 12590 ft | 248 kts | 331° |
| 2026-04-27 22:41 | 61.86191 | -6.57038 | 12154 ft | 246 kts | 322° |
| 2026-04-27 22:41 | 61.87511 | -6.59302 | 11742 ft | 243 kts | 314° |
| 2026-04-27 22:41 | 61.88632 | -6.61945 | 11497 ft | 240 kts | 305° |
| 2026-04-27 22:42 | 61.89548 | -6.64914 | 11435 ft | 241 kts | 297° |
| 2026-04-27 22:42 | 61.90242 | -6.68156 | 11344 ft | 241 kts | 289° |
| 2026-04-27 22:42 | 61.90764 | -6.71533 | 11239 ft | 241 kts | 288° |
| 2026-04-27 22:42 | 61.91283 | -6.74912 | 11136 ft | 241 kts | 288° |
| 2026-04-27 22:43 | 61.91803 | -6.78286 | 11028 ft | 240 kts | 288° |
| 2026-04-27 22:43 | 61.92315 | -6.81614 | 10928 ft | 240 kts | 288° |
| 2026-04-27 22:43 | 61.92828 | -6.84977 | 10823 ft | 239 kts | 287° |
| 2026-04-27 22:43 | 61.93339 | -6.88340 | 10717 ft | 239 kts | 287° |
| 2026-04-27 22:44 | 61.93851 | -6.91700 | 10611 ft | 239 kts | 287° |
| 2026-04-27 22:44 | 61.94363 | -6.95052 | 10503 ft | 239 kts | 287° |
| 2026-04-27 22:44 | 61.94874 | -6.98410 | 10154 ft | 238 kts | 287° |
| 2026-04-27 22:44 | 61.95380 | -7.01740 | 9761 ft | 236 kts | 287° |
| 2026-04-27 22:45 | 61.95881 | -7.05047 | 9367 ft | 234 kts | 287° |
| 2026-04-27 22:45 | 61.96380 | -7.08334 | 8976 ft | 229 kts | 287° |
| 2026-04-27 22:45 | 61.96855 | -7.11485 | 8592 ft | 219 kts | 286° |
| 2026-04-27 22:45 | 61.97308 | -7.14518 | 8210 ft | 211 kts | 286° |
| 2026-04-27 22:46 | 61.97744 | -7.17441 | 7812 ft | 205 kts | 286° |
| 2026-04-27 22:46 | 61.98163 | -7.20242 | 7445 ft | 196 kts | 285° |
| 2026-04-27 22:46 | 61.98567 | -7.22936 | 7085 ft | 187 kts | 284° |
| 2026-04-27 22:46 | 61.98958 | -7.25550 | 6742 ft | 184 kts | 284° |
| 2026-04-27 22:47 | 61.99343 | -7.28135 | 6413 ft | 183 kts | 284° |
| 2026-04-27 22:47 | 61.99726 | -7.30705 | 6097 ft | 182 kts | 283° |
| 2026-04-27 22:47 | 62.00105 | -7.33268 | 5791 ft | 181 kts | 283° |
| 2026-04-27 22:47 | 62.00482 | -7.35813 | 5494 ft | 179 kts | 283° |
| 2026-04-27 22:48 | 62.00857 | -7.38339 | 5444 ft | 180 kts | 283° |
| 2026-04-27 22:48 | 62.01233 | -7.40879 | 5382 ft | 180 kts | 283° |
| 2026-04-27 22:48 | 62.01608 | -7.43415 | 5311 ft | 179 kts | 283° |
| 2026-04-27 22:48 | 62.01980 | -7.45940 | 5223 ft | 174 kts | 283° |
| 2026-04-27 22:49 | 62.02383 | -7.48248 | 5064 ft | 163 kts | 290° |
| 2026-04-27 22:49 | 62.02946 | -7.50320 | 4793 ft | 161 kts | 298° |
| 2026-04-27 22:49 | 62.03660 | -7.52184 | 4554 ft | 164 kts | 307° |
| 2026-04-27 22:49 | 62.04527 | -7.53791 | 4319 ft | 167 kts | 316° |
| 2026-04-27 22:50 | 62.05528 | -7.55093 | 4080 ft | 171 kts | 326° |
| 2026-04-27 22:50 | 62.06644 | -7.55950 | 3835 ft | 176 kts | 343° |
| 2026-04-27 22:50 | 62.07887 | -7.55931 | 3571 ft | 183 kts | 7° |
| 2026-04-27 22:50 | 62.09049 | -7.54891 | 3283 ft | 179 kts | 33° |
| 2026-04-27 22:51 | 62.09906 | -7.53077 | 3022 ft | 170 kts | 58° |
| 2026-04-27 22:51 | 62.10383 | -7.50838 | 2783 ft | 163 kts | 81° |
| 2026-04-27 22:51 | 62.10462 | -7.48493 | 2570 ft | 155 kts | 103° |
| 2026-04-27 22:51 | 62.10202 | -7.46350 | 2297 ft | 144 kts | 122° |
| 2026-04-27 22:52 | 62.09821 | -7.44438 | 2042 ft | 138 kts | 122° |
| 2026-04-27 22:52 | 62.09447 | -7.42554 | 1723 ft | 138 kts | 122° |
| 2026-04-27 22:52 | 62.09070 | -7.40677 | 1541 ft | 137 kts | 122° |
| 2026-04-27 22:52 | 62.08701 | -7.38824 | 1332 ft | 136 kts | 121° |
| 2026-04-27 22:53 | 62.08333 | -7.36971 | 1117 ft | 135 kts | 121° |
| 2026-04-27 22:53 | 62.07965 | -7.35132 | 819 ft | 135 kts | 120° |
| 2026-04-27 22:53 | 62.07603 | -7.33300 | 547 ft | 135 kts | 119° |
| 2026-04-27 22:53 | 62.07240 | -7.31440 | 512 ft | 136 kts | 122° |
| 2026-04-27 22:54 | 62.06837 | -7.29642 | 379 ft | 135 kts | 123° |
| 2026-04-27 22:54 | 62.06407 | -7.27923 | 297 ft | 120 kts | 121° |
| 2026-04-27 22:54 | 62.06178 | -7.27023 | 283 ft | 32 kts | 117° |
| 2026-04-27 22:54 | 62.06081 | -7.26615 | 279 ft | 28 kts | 119° |
| 2026-04-27 22:55 | 62.06002 | -7.26310 | 275 ft | 18 kts | 118° |
| 2026-04-27 22:55 | 62.05953 | -7.26095 | 270 ft | 14 kts | 108° |
| 2026-04-27 22:55 | 62.05932 | -7.26011 | 271 ft | 3 kts | 203° |
| 2026-04-27 22:55 | 62.05956 | -7.26128 | 270 ft | 21 kts | 299° |
| 2026-04-27 22:56 | 62.06050 | -7.26501 | 277 ft | 34 kts | 297° |
| 2026-04-27 22:56 | 62.06172 | -7.26993 | 281 ft | 40 kts | 297° |
| 2026-04-27 22:56 | 62.06297 | -7.27500 | 292 ft | 37 kts | 297° |
| 2026-04-27 22:56 | 62.06395 | -7.27886 | 294 ft | 19 kts | 297° |
| 2026-04-27 22:57 | 62.06443 | -7.28085 | 294 ft | 11 kts | 301° |
| 2026-04-27 22:57 | 62.06497 | -7.28124 | 294 ft | 8 kts | 13° |
| 2026-04-27 22:57 | 62.06549 | -7.28085 | 293 ft | 7 kts | 15° |
| 2026-04-27 22:57 | 62.06590 | -7.28075 | 292 ft | 5 kts | 4° |
| 2026-04-27 22:58 | 62.06626 | -7.28078 | 293 ft | 10 kts | 351° |
| 2026-04-27 22:58 | 62.06686 | -7.28059 | 295 ft | 8 kts | 34° |
| 2026-04-27 22:58 | 62.06699 | -7.28021 | 296 ft | 0 kts | 66° |
| 2026-04-27 23:08 | 62.06699 | -7.28022 | 293 ft | 0 kts | 66° |